Time;durP1;ratioP1;P1;durP2;ratioP2;P2;SDS_P1;SDS_P2;PMS_P1;PMS_P2;Temp;Humidity;BMP_temperature;BMP_pressure;BME280_temperature;BME280_humidity;BME280_pressure;Samples;Min_cycle;Max_cycle;Signal;HPM_P1;HPM_P2
2022/05/30 00:02:28;;;;;;;5.40;2.60;;;;;;;10.56;67.31;95966.95;108113;1264;41391;-72
2022/05/30 00:04:59;;;;;;;6.10;3.00;;;;;;;10.50;67.61;95969.59;108193;1262;41338;-72
2022/05/30 00:07:30;;;;;;;3.80;2.30;;;;;;;10.46;68.01;95966.02;108272;1264;42851;-72
2022/05/30 00:10:01;;;;;;;7.10;3.00;;;;;;;10.47;68.20;95966.38;108158;1264;47756;-72
2022/05/30 00:12:32;;;;;;;5.60;3.20;;;;;;;10.48;68.31;95964.86;108194;1264;43502;-72
2022/05/30 00:15:04;;;;;;;5.30;3.00;;;;;;;10.48;68.29;95969.63;108200;1264;34541;-73
2022/05/30 00:17:35;;;;;;;5.70;3.00;;;;;;;10.47;68.45;95975.70;108255;1264;37198;-72
2022/05/30 00:20:07;;;;;;;6.60;3.40;;;;;;;10.45;68.57;95971.03;108233;1264;30568;-72
2022/05/30 00:22:41;;;;;;;5.10;2.60;;;;;;;10.42;68.63;95972.51;108136;1264;43462;-72
2022/05/30 00:25:12;;;;;;;6.50;3.60;;;;;;;10.37;68.80;95975.28;108297;1263;27008;-72
2022/05/30 00:27:43;;;;;;;7.10;3.20;;;;;;;10.34;68.96;95978.36;108261;1264;41435;-72
2022/05/30 00:30:16;;;;;;;3.00;2.50;;;;;;;10.33;69.06;95974.52;108008;1264;46376;-72
2022/05/30 00:32:47;;;;;;;5.60;2.80;;;;;;;10.29;69.45;95973.52;108228;1264;47601;-72
2022/05/30 00:35:21;;;;;;;6.10;3.00;;;;;;;10.22;69.59;95971.52;108193;1264;30899;-72
2022/05/30 00:37:52;;;;;;;5.80;3.30;;;;;;;10.14;69.95;95968.71;108164;1264;43509;-72
2022/05/30 00:40:23;;;;;;;5.00;3.10;;;;;;;10.10;69.97;95969.77;108036;1264;51127;-72
2022/05/30 00:42:54;;;;;;;4.20;2.70;;;;;;;10.07;70.21;95964.06;108193;1264;52316;-72
2022/05/30 00:45:25;;;;;;;5.50;2.60;;;;;;;10.02;70.32;95956.30;108144;1264;38762;-72
2022/05/30 00:47:56;;;;;;;5.20;2.70;;;;;;;10.03;70.32;95957.63;108175;1264;37721;-72
2022/05/30 00:50:27;;;;;;;4.90;3.20;;;;;;;10.01;70.52;95957.29;108185;1264;36408;-72
2022/05/30 00:52:59;;;;;;;5.90;2.80;;;;;;;10.04;70.55;95953.84;108314;1264;30075;-72
2022/05/30 00:55:30;;;;;;;7.90;3.40;;;;;;;10.08;70.62;95954.29;108168;1264;36006;-72
2022/05/30 00:58:01;;;;;;;7.50;3.70;;;;;;;10.09;70.79;95956.66;108239;1264;29448;-72
2022/05/30 01:00:33;;;;;;;6.70;3.40;;;;;;;10.00;70.93;95954.54;108217;1264;44288;-72
2022/05/30 01:08:42;;;;;;;7.20;4.00;;;;;;;9.79;71.70;95956.67;108212;1264;45786;-72
2022/05/30 01:11:13;;;;;;;5.60;2.90;;;;;;;9.75;71.71;95956.15;108115;1264;42418;-72
2022/05/30 01:13:44;;;;;;;6.20;3.50;;;;;;;9.77;71.76;95955.86;108300;1263;33002;-72
2022/05/30 01:16:15;;;;;;;5.40;3.40;;;;;;;9.77;71.91;95952.69;108287;1262;33170;-72
2022/05/30 01:18:51;;;;;;;6.70;4.00;;;;;;;9.74;71.99;95950.51;108098;1264;36384;-72
2022/05/30 01:21:51;;;;;;;4.90;3.60;;;;;;;9.70;72.17;95942.83;108095;1264;32154;-72
2022/05/30 01:24:38;;;;;;;8.00;3.20;;;;;;;9.66;72.32;95941.15;108207;1264;35821;-73
2022/05/30 01:27:22;;;;;;;6.00;3.80;;;;;;;9.63;72.54;95933.79;108082;1262;66405;-72
2022/05/30 01:29:59;;;;;;;7.50;3.70;;;;;;;9.59;72.57;95936.77;108092;1264;41547;-72
2022/05/30 01:32:30;;;;;;;6.60;3.80;;;;;;;9.52;72.81;95935.89;108406;1263;36631;-72
2022/05/30 01:35:02;;;;;;;7.20;3.60;;;;;;;9.51;73.45;95936.02;108395;1264;27298;-71
2022/05/30 01:37:32;;;;;;;7.90;3.70;;;;;;;9.48;73.51;95931.36;108193;1264;36895;-73
2022/05/30 01:40:04;;;;;;;5.40;3.40;;;;;;;9.49;73.39;95924.21;108056;1264;42816;-73
2022/05/30 01:42:35;;;;;;;6.50;4.10;;;;;;;9.49;73.54;95922.15;108077;1264;48996;-72
2022/05/30 01:45:08;;;;;;;6.00;3.30;;;;;;;9.45;73.93;95915.70;108249;1264;28111;-72
2022/05/30 01:47:39;;;;;;;5.20;3.50;;;;;;;9.40;74.45;95917.77;108234;1264;31510;-72
2022/05/30 01:50:12;;;;;;;8.20;4.20;;;;;;;9.34;74.52;95919.02;108176;1262;33678;-72
2022/05/30 01:52:43;;;;;;;5.60;4.00;;;;;;;9.31;74.53;95924.37;108048;1264;57779;-72
2022/05/30 01:55:14;;;;;;;6.20;4.10;;;;;;;9.29;74.56;95928.79;106995;1264;1550574;-72
2022/05/30 01:57:45;;;;;;;6.50;4.40;;;;;;;9.26;74.72;95928.86;108204;1264;44735;-72
2022/05/30 02:00:17;;;;;;;6.90;4.20;;;;;;;9.27;75.09;95927.70;108241;1261;35057;-72
2022/05/30 02:02:49;;;;;;;8.60;4.70;;;;;;;9.23;75.28;95926.64;108178;1262;49065;-72
2022/05/30 02:05:20;;;;;;;7.40;5.20;;;;;;;9.18;75.46;95931.69;108132;1264;56246;-72
2022/05/30 02:07:51;;;;;;;6.70;4.80;;;;;;;9.15;76.05;95930.73;108061;1264;61152;-72
2022/05/30 02:10:22;;;;;;;7.80;5.00;;;;;;;9.13;76.49;95932.59;108036;1262;45080;-72
2022/05/30 02:12:54;;;;;;;8.10;5.10;;;;;;;9.12;76.43;95936.52;108191;1261;42420;-72
2022/05/30 02:15:25;;;;;;;7.70;4.80;;;;;;;9.10;76.44;95936.06;107214;1261;1285129;-72
2022/05/30 02:17:56;;;;;;;6.00;4.90;;;;;;;9.10;76.45;95941.67;108210;1264;55075;-72
2022/05/30 02:20:27;;;;;;;9.50;5.70;;;;;;;9.13;76.47;95939.67;108225;1262;55789;-72
2022/05/30 02:22:58;;;;;;;8.30;6.00;;;;;;;9.18;76.49;95930.15;108264;1262;33738;-72
2022/05/30 02:25:29;;;;;;;10.00;6.00;;;;;;;9.26;76.48;95932.63;108258;1262;55105;-72
2022/05/30 02:28:00;;;;;;;7.10;5.30;;;;;;;9.32;76.38;95930.45;108247;1262;63313;-72
2022/05/30 02:30:32;;;;;;;9.10;6.00;;;;;;;9.31;76.66;95927.23;108313;1262;33898;-72
2022/05/30 02:38:36;;;;;;;8.30;5.50;;;;;;;9.24;76.87;95927.15;108238;1262;55478;-75
2022/05/30 02:41:07;;;;;;;8.90;4.80;;;;;;;9.25;76.74;95930.38;108187;1262;62871;-72
2022/05/30 02:43:39;;;;;;;7.00;6.00;;;;;;;9.27;77.02;95931.65;106977;1262;1596081;-72
2022/05/30 02:46:13;;;;;;;8.20;6.10;;;;;;;9.27;77.33;95934.20;108114;1262;36415;-72
2022/05/30 02:48:44;;;;;;;9.40;6.90;;;;;;;9.24;78.16;95932.13;108110;1264;85854;-71
2022/05/30 02:51:15;;;;;;;9.70;6.30;;;;;;;9.23;78.13;95933.73;108193;1262;46793;-72
2022/05/30 02:53:46;;;;;;;9.40;5.80;;;;;;;9.24;78.22;95936.52;108222;1262;34242;-71
2022/05/30 02:56:19;;;;;;;6.50;5.50;;;;;;;9.27;78.19;95940.76;108170;1264;74280;-72
2022/05/30 02:58:50;;;;;;;8.40;6.60;;;;;;;9.30;78.12;95941.73;108138;1262;43296;-72
2022/05/30 03:01:22;;;;;;;9.00;6.40;;;;;;;9.32;78.26;95946.98;108081;1262;64325;-71
2022/05/30 03:03:53;;;;;;;8.30;6.00;;;;;;;9.32;78.89;95943.56;108097;1264;58710;-72
2022/05/30 03:06:24;;;;;;;9.30;6.60;;;;;;;9.30;79.15;95948.89;108157;1261;58064;-71
2022/05/30 03:08:56;;;;;;;8.80;6.70;;;;;;;9.28;79.27;95951.05;108152;1261;76410;-72
2022/05/30 03:11:27;;;;;;;8.20;6.30;;;;;;;9.29;79.13;95946.72;108233;1261;45538;-71
2022/05/30 03:14:01;;;;;;;10.30;7.10;;;;;;;9.31;79.07;95946.64;108141;1264;67864;-71
2022/05/30 03:16:32;;;;;;;11.20;7.00;;;;;;;9.33;78.98;95946.45;108160;1264;55550;-71
2022/05/30 03:19:05;;;;;;;10.70;6.40;;;;;;;9.35;78.91;95944.46;108041;1264;62702;-72
2022/05/30 03:21:36;;;;;;;9.30;7.20;;;;;;;9.36;79.48;95942.91;108059;1264;47144;-71
2022/05/30 03:24:08;;;;;;;9.30;7.00;;;;;;;9.34;79.34;95947.40;108169;1262;60228;-72
2022/05/30 03:26:39;;;;;;;8.80;5.90;;;;;;;9.35;79.44;95951.71;108260;1262;45375;-72
2022/05/30 03:29:10;;;;;;;9.40;6.80;;;;;;;9.32;79.80;95956.95;108150;1262;68560;-72
2022/05/30 03:31:41;;;;;;;7.70;6.20;;;;;;;9.29;79.79;95957.98;108076;1264;78977;-71
2022/05/30 03:34:12;;;;;;;10.90;7.20;;;;;;;9.29;80.11;95963.60;108049;1264;65518;-71
2022/05/30 03:36:43;;;;;;;11.00;7.80;;;;;;;9.26;80.58;95960.60;108151;1264;35259;-71
2022/05/30 03:39:14;;;;;;;9.40;7.10;;;;;;;9.24;80.62;95967.73;108265;1264;32214;-72
2022/05/30 03:41:47;;;;;;;10.10;7.10;;;;;;;9.27;80.47;95968.00;108223;1264;28047;-72
2022/05/30 03:44:18;;;;;;;9.80;7.00;;;;;;;9.32;80.45;95969.11;108163;1264;43301;-72
2022/05/30 03:46:49;;;;;;;11.30;8.00;;;;;;;9.34;80.56;95971.35;108164;1264;36901;-71
2022/05/30 03:49:20;;;;;;;11.20;8.00;;;;;;;9.32;81.07;95975.46;108146;1264;34904;-71
2022/05/30 03:51:51;;;;;;;9.70;7.00;;;;;;;9.29;81.13;95973.86;108284;1264;29013;-71
2022/05/30 03:54:22;;;;;;;10.80;7.60;;;;;;;9.31;81.41;95972.25;107304;1264;1270675;-72
2022/05/30 03:56:54;;;;;;;11.10;6.70;;;;;;;9.32;81.93;95977.64;108090;1264;48099;-71
2022/05/30 03:59:25;;;;;;;7.60;6.50;;;;;;;9.29;82.37;95977.72;107963;1264;44646;-71
2022/05/30 04:01:56;;;;;;;12.40;8.70;;;;;;;9.26;82.58;95974.83;108264;1264;43294;-72
2022/05/30 04:04:27;;;;;;;11.90;8.70;;;;;;;9.23;82.52;95967.63;108116;1264;41848;-72
2022/05/30 04:06:58;;;;;;;9.90;7.70;;;;;;;9.26;82.55;95976.59;108310;1264;41083;-71
2022/05/30 04:09:29;;;;;;;12.20;8.50;;;;;;;9.27;82.66;95976.45;108279;1264;28075;-72
2022/05/30 04:12:03;;;;;;;10.70;7.80;;;;;;;9.27;82.81;95975.89;108256;1264;32061;-70
2022/05/30 04:14:34;;;;;;;10.90;8.10;;;;;;;9.23;83.20;95968.80;108127;1264;31239;-72
2022/05/30 04:17:06;;;;;;;10.50;8.20;;;;;;;9.19;83.06;95976.95;108134;1264;50660;-72
2022/05/30 04:19:37;;;;;;;12.20;8.70;;;;;;;9.20;82.94;95972.80;108335;1264;34900;-72
2022/05/30 04:22:08;;;;;;;11.10;7.80;;;;;;;9.27;82.93;95974.71;108332;1264;34108;-72
2022/05/30 04:24:39;;;;;;;10.40;7.70;;;;;;;9.29;82.94;95976.39;108231;1264;45266;-72
2022/05/30 04:27:10;;;;;;;10.50;7.40;;;;;;;9.27;83.14;95983.64;108218;1262;42474;-72
2022/05/30 04:29:41;;;;;;;10.20;7.40;;;;;;;9.23;83.20;95983.98;108094;1264;48540;-71
2022/05/30 04:32:13;;;;;;;11.00;8.80;;;;;;;9.20;83.46;95985.45;108311;1263;45003;-72
2022/05/30 04:34:44;;;;;;;10.10;7.80;;;;;;;9.18;83.52;95985.00;108124;1263;32113;-72
2022/05/30 04:37:15;;;;;;;11.70;7.90;;;;;;;9.18;83.64;95986.39;108078;1263;34620;-71
2022/05/30 04:39:49;;;;;;;9.40;7.40;;;;;;;9.17;83.53;95986.71;108117;1264;56205;-72
2022/05/30 04:42:20;;;;;;;9.50;6.90;;;;;;;9.20;83.38;95989.01;107997;1264;50829;-72
2022/05/30 04:44:51;;;;;;;9.80;7.20;;;;;;;9.26;83.35;95986.27;108043;1264;53711;-72
2022/05/30 04:47:23;;;;;;;9.10;8.10;;;;;;;9.31;83.25;95982.56;108281;1264;32484;-72
2022/05/30 04:49:54;;;;;;;12.10;8.60;;;;;;;9.40;83.10;95978.19;108134;1264;54986;-72
2022/05/30 04:52:26;;;;;;;9.60;7.90;;;;;;;9.46;82.85;95983.63;108044;1264;39108;-72
2022/05/30 04:54:57;;;;;;;7.90;6.80;;;;;;;9.47;82.69;95987.80;108235;1264;44933;-72
2022/05/30 04:57:28;;;;;;;8.80;7.20;;;;;;;9.49;82.56;95986.86;108327;1264;35207;-72
2022/05/30 04:59:59;;;;;;;7.50;6.60;;;;;;;9.50;82.33;95987.00;108320;1264;43178;-71
2022/05/30 05:02:30;;;;;;;10.00;6.80;;;;;;;9.54;82.22;95990.16;108253;1264;28674;-72
2022/05/30 05:05:01;;;;;;;8.60;7.70;;;;;;;9.57;82.06;95984.90;108333;1264;35379;-72
2022/05/30 05:07:40;;;;;;;10.80;7.40;;;;;;;9.56;81.79;95987.86;108318;1263;35178;-72
2022/05/30 05:10:34;;;;;;;8.50;6.90;;;;;;;9.62;81.85;95987.33;108127;1264;51964;-71
2022/05/30 05:13:05;;;;;;;8.70;6.70;;;;;;;9.76;81.84;95981.66;108088;1264;48711;-72
2022/05/30 05:15:36;;;;;;;9.80;7.10;;;;;;;10.15;81.42;95974.15;108137;1264;34672;-71
2022/05/30 05:18:10;;;;;;;9.80;7.30;;;;;;;10.07;80.56;95970.73;108172;1264;45013;-72
2022/05/30 05:20:43;;;;;;;9.90;8.20;;;;;;;9.99;80.58;95976.31;107984;1264;50501;-72
2022/05/30 05:23:14;;;;;;;8.40;6.90;;;;;;;10.07;80.58;95978.67;107984;1264;114006;-72
2022/05/30 05:25:44;;;;;;;9.50;7.30;;;;;;;10.62;80.96;95987.67;108057;1263;58187;-72
2022/05/30 05:28:16;;;;;;;7.20;6.40;;;;;;;12.37;79.32;95991.07;108088;1264;51533;-72
2022/05/30 05:30:47;;;;;;;7.60;6.30;;;;;;;13.30;74.32;95987.91;108199;1263;47357;-72
2022/05/30 05:33:19;;;;;;;9.50;7.40;;;;;;;13.00;71.82;95991.56;108238;1264;31599;-72
2022/05/30 05:35:50;;;;;;;7.10;6.20;;;;;;;13.34;71.62;95981.58;108259;1262;31824;-72
2022/05/30 05:38:24;;;;;;;8.30;5.60;;;;;;;12.57;70.12;95986.61;107918;1264;62317;-72
2022/05/30 05:40:55;;;;;;;8.30;6.30;;;;;;;11.61;71.65;95994.55;107952;1264;58795;-72
2022/05/30 05:43:29;;;;;;;8.90;6.90;;;;;;;10.94;73.07;95995.06;108203;1264;42336;-72
2022/05/30 05:45:59;;;;;;;9.50;6.30;;;;;;;10.45;74.68;95997.89;108346;1264;29840;-72
2022/05/30 05:48:30;;;;;;;7.80;6.20;;;;;;;10.11;75.93;96006.21;108230;1264;35963;-72
2022/05/30 05:51:04;;;;;;;10.60;7.20;;;;;;;9.91;77.19;96012.88;108083;1264;52051;-72
2022/05/30 05:53:38;;;;;;;7.60;6.80;;;;;;;9.74;77.93;96012.13;108047;1264;42517;-72
2022/05/30 05:56:28;;;;;;;10.20;6.90;;;;;;;9.65;78.77;96012.20;107955;1264;44824;-72
2022/05/30 05:58:59;;;;;;;8.30;6.50;;;;;;;9.59;79.11;96012.99;108115;1262;36674;-72
2022/05/30 06:01:33;;;;;;;11.70;7.60;;;;;;;9.59;79.39;96015.95;108119;1264;43253;-71
2022/05/30 06:04:08;;;;;;;8.20;6.20;;;;;;;9.55;79.74;96022.38;107918;1264;44689;-72
2022/05/30 06:06:42;;;;;;;8.40;5.50;;;;;;;9.49;80.00;96036.23;107895;1264;30163;-72
2022/05/30 06:09:13;;;;;;;9.80;6.60;;;;;;;9.46;80.73;96036.54;107831;1264;36845;-72
2022/05/30 06:11:45;;;;;;;6.40;5.30;;;;;;;9.48;80.90;96033.64;107922;1264;31637;-72
2022/05/30 06:14:16;;;;;;;7.30;5.60;;;;;;;9.53;81.08;96036.64;107866;1264;35652;-72
2022/05/30 06:16:47;;;;;;;7.30;4.90;;;;;;;9.49;81.66;96047.66;107884;1264;59124;-71
2022/05/30 06:19:19;;;;;;;5.40;4.70;;;;;;;9.45;81.97;96048.83;107922;1264;40850;-72
2022/05/30 06:21:50;;;;;;;6.00;4.10;;;;;;;9.40;82.08;96047.33;107927;1264;32719;-71
2022/05/30 06:24:20;;;;;;;6.60;4.00;;;;;;;9.37;82.14;96049.18;107979;1264;52177;-71
2022/05/30 06:26:52;;;;;;;4.40;3.40;;;;;;;9.37;82.14;96045.59;108052;1264;57167;-71
2022/05/30 06:29:23;;;;;;;6.10;3.80;;;;;;;9.39;81.97;96042.55;107896;1264;47586;-71
2022/05/30 06:31:54;;;;;;;6.20;3.80;;;;;;;9.44;81.73;96049.26;108034;1264;41928;-71
2022/05/30 06:34:25;;;;;;;5.60;3.40;;;;;;;9.51;81.51;96058.11;107981;1264;35270;-72
2022/05/30 06:36:56;;;;;;;5.10;3.20;;;;;;;9.52;81.27;96063.05;107973;1264;32932;-72
2022/05/30 06:39:52;;;;;;;4.40;3.70;;;;;;;9.44;81.04;96060.52;107941;1264;45102;-72
2022/05/30 06:42:24;;;;;;;5.10;4.00;;;;;;;9.39;80.96;96062.39;107982;1264;26493;-72
2022/05/30 06:44:58;;;;;;;3.70;2.80;;;;;;;9.43;80.84;96062.65;107884;1264;38964;-72
2022/05/30 06:47:29;;;;;;;3.10;2.50;;;;;;;9.52;80.57;96058.31;107965;1262;43503;-72
2022/05/30 06:50:00;;;;;;;4.50;2.90;;;;;;;9.61;80.26;96054.88;107973;1264;43585;-72
2022/05/30 06:52:31;;;;;;;3.00;2.00;;;;;;;9.73;80.09;96057.88;107919;1264;70822;-72
2022/05/30 06:55:03;;;;;;;2.10;1.80;;;;;;;9.86;79.54;96054.36;106638;1267;1762076;-72
2022/05/30 07:00:46;;;;;;;4.00;2.50;;;;;;;10.08;78.39;96058.05;107692;1267;33732;-73
2022/05/30 07:03:18;;;;;;;3.10;2.30;;;;;;;10.23;78.51;96057.44;107878;1265;33446;-72
2022/05/30 07:05:49;;;;;;;2.50;1.80;;;;;;;10.41;78.20;96055.14;107833;1264;57649;-73
2022/05/30 07:08:23;;;;;;;3.20;1.80;;;;;;;10.51;77.30;96060.85;107994;1264;90029;-73
2022/05/30 07:10:54;;;;;;;4.60;1.80;;;;;;;10.54;76.32;96069.18;108045;1264;60030;-73
2022/05/30 07:13:28;;;;;;;1.40;1.00;;;;;;;10.54;75.56;96071.13;107594;1264;255802;-72
2022/05/30 07:15:59;;;;;;;1.80;1.10;;;;;;;10.59;75.06;96074.52;107805;1264;150120;-72
2022/05/30 07:18:31;;;;;;;3.20;1.10;;;;;;;10.64;74.72;96073.83;108094;1264;60425;-72
2022/05/30 07:21:05;;;;;;;1.70;1.00;;;;;;;10.64;73.89;96071.02;107968;1264;90236;-72
2022/05/30 07:23:38;;;;;;;1.20;1.00;;;;;;;10.72;74.24;96067.39;107862;1264;103715;-73
2022/05/30 07:26:13;;;;;;;2.00;1.20;;;;;;;10.82;73.52;96067.04;107852;1263;76869;-73
2022/05/30 07:28:47;;;;;;;1.30;1.20;;;;;;;10.93;72.94;96065.38;107924;1264;104584;-73
2022/05/30 07:31:20;;;;;;;2.20;1.30;;;;;;;11.07;73.22;96069.67;107797;1264;158464;-73
2022/05/30 07:33:52;;;;;;;1.90;0.80;;;;;;;11.35;73.15;96075.52;107954;1264;64187;-71
2022/05/30 07:36:27;;;;;;;1.50;1.30;;;;;;;11.56;72.01;96073.42;107994;1264;63029;-73
2022/05/30 07:38:58;;;;;;;3.00;1.30;;;;;;;12.45;71.77;96077.36;107758;1264;183654;-72
2022/05/30 07:41:31;;;;;;;1.20;0.90;;;;;;;15.33;69.44;96072.52;108042;1264;65628;-72
2022/05/30 07:44:02;;;;;;;2.50;1.10;;;;;;;16.63;60.67;96071.52;108126;1264;62352;-70
2022/05/30 07:46:34;;;;;;;1.80;1.30;;;;;;;16.36;59.18;96073.52;107996;1264;64203;-71
2022/05/30 07:49:05;;;;;;;1.00;0.90;;;;;;;18.10;57.63;96070.44;107573;1264;148488;-72
2022/05/30 07:51:36;;;;;;;1.80;1.00;;;;;;;18.15;54.18;96081.96;106409;1264;1963970;-71
2022/05/30 07:54:07;;;;;;;1.60;1.40;;;;;;;16.82;52.42;96088.93;107885;1267;65024;-70
2022/05/30 07:56:39;;;;;;;1.90;1.10;;;;;;;15.66;55.30;96084.77;107773;1264;68516;-70
2022/05/30 07:59:11;;;;;;;1.40;1.10;;;;;;;15.38;56.89;96083.31;107873;1266;64267;-70
2022/05/30 08:01:43;;;;;;;2.20;1.10;;;;;;;17.14;55.07;96075.84;107639;1264;361170;-71
2022/05/30 08:04:15;;;;;;;1.10;1.00;;;;;;;17.57;51.99;96075.91;107863;1264;60932;-71
2022/05/30 08:06:46;;;;;;;0.80;0.80;;;;;;;17.09;52.68;96078.20;108024;1264;57065;-72
2022/05/30 08:09:17;;;;;;;1.80;1.00;;;;;;;19.26;51.02;96070.23;107707;1265;70223;-72
2022/05/30 08:11:50;;;;;;;1.20;0.70;;;;;;;20.97;46.67;96075.20;107810;1264;62180;-72
2022/05/30 08:14:21;;;;;;;1.10;0.90;;;;;;;19.71;44.59;96080.63;107735;1264;39486;-71
2022/05/30 08:16:53;;;;;;;1.30;0.70;;;;;;;17.52;46.23;96093.02;107833;1264;43573;-72
2022/05/30 08:19:24;;;;;;;1.40;0.80;;;;;;;17.08;48.26;96092.70;107960;1263;49316;-73
2022/05/30 08:22:01;;;;;;;0.90;0.70;;;;;;;17.20;49.03;96100.14;107836;1263;35119;-72
2022/05/30 08:24:37;;;;;;;1.20;0.70;;;;;;;17.06;48.55;96106.33;107837;1264;32783;-72
2022/05/30 08:27:08;;;;;;;0.90;0.90;;;;;;;16.31;49.24;96097.19;107878;1264;44602;-71
2022/05/30 08:29:39;;;;;;;1.10;0.70;;;;;;;15.35;50.99;96102.91;107769;1264;34504;-72
2022/05/30 08:32:12;;;;;;;2.50;0.90;;;;;;;14.58;52.68;96106.91;107935;1264;33467;-72
2022/05/30 08:34:44;;;;;;;1.50;1.10;;;;;;;13.98;54.69;96113.40;107996;1264;36394;-71
2022/05/30 08:37:15;;;;;;;3.00;1.10;;;;;;;13.60;56.11;96115.27;107946;1264;72330;-72
2022/05/30 08:42:36;;;;;;;1.10;0.90;;;;;;;17.95;52.61;96119.75;107911;1264;58045;-71
2022/05/30 08:45:09;;;;;;;0.70;0.60;;;;;;;20.07;48.05;96113.29;107927;1264;79328;-70
2022/05/30 08:47:50;;;;;;;0.50;0.50;;;;;;;21.06;45.22;96116.64;107929;1264;62863;-72
2022/05/30 08:50:34;;;;;;;1.20;0.70;;;;;;;21.31;42.82;96123.73;107855;1264;58360;-72
2022/05/30 08:53:44;;;;;;;0.80;0.70;;;;;;;21.20;42.13;96119.14;108011;1264;59532;-71
2022/05/30 08:56:22;;;;;;;1.20;1.00;;;;;;;19.64;42.69;96127.73;106332;1264;2110127;-71
2022/05/30 08:59:17;;;;;;;1.80;1.00;;;;;;;17.52;43.60;96127.27;107919;1267;56800;-71
2022/05/30 09:01:55;;;;;;;2.30;1.20;;;;;;;16.06;46.24;96124.94;107848;1264;65889;-71
2022/05/30 09:04:31;;;;;;;2.20;1.20;;;;;;;15.49;47.61;96133.55;108076;1264;68188;-71
2022/05/30 09:07:05;;;;;;;1.30;1.20;;;;;;;15.32;49.01;96129.96;108134;1264;75050;-68
2022/05/30 09:09:44;;;;;;;1.20;1.10;;;;;;;15.17;49.64;96130.27;107890;1264;126761;-69
2022/05/30 09:12:24;;;;;;;2.90;1.10;;;;;;;14.96;50.26;96131.67;107709;1264;80890;-69
2022/05/30 09:15:00;;;;;;;1.10;0.90;;;;;;;14.53;50.80;96141.42;107925;1264;59140;-69
2022/05/30 09:17:36;;;;;;;1.60;1.10;;;;;;;14.50;51.84;96135.33;107843;1264;68619;-69
2022/05/30 09:20:11;;;;;;;1.50;1.20;;;;;;;14.92;52.23;96142.80;107798;1267;80954;-69
2022/05/30 09:22:43;;;;;;;1.80;1.30;;;;;;;15.10;51.96;96141.95;107970;1264;73686;-70
2022/05/30 09:28:09;;;;;;;1.10;1.00;;;;;;;15.58;51.42;96133.83;107836;1264;93368;-71
2022/05/30 09:30:46;;;;;;;2.20;1.30;;;;;;;15.43;50.83;96139.02;107765;1264;33839;-72
2022/05/30 09:33:30;;;;;;;1.40;1.10;;;;;;;15.34;50.61;96135.61;107758;1263;111338;-71
2022/05/30 09:36:18;;;;;;;3.30;0.80;;;;;;;15.49;49.47;96138.64;108029;1264;31675;-71
2022/05/30 09:38:51;;;;;;;2.30;1.30;;;;;;;15.34;49.48;96137.05;107956;1264;44822;-71
2022/05/30 09:41:25;;;;;;;4.70;1.40;;;;;;;15.54;50.79;96142.64;108076;1264;38114;-71
2022/05/30 09:44:01;;;;;;;1.80;1.30;;;;;;;15.60;50.66;96149.95;108007;1264;39263;-70
2022/05/30 09:46:38;;;;;;;2.10;1.20;;;;;;;15.61;50.77;96155.24;108169;1264;36652;-70
2022/05/30 09:49:12;;;;;;;1.60;1.20;;;;;;;15.53;50.68;96153.67;108069;1264;33646;-70
2022/05/30 09:51:45;;;;;;;1.10;1.00;;;;;;;15.71;50.93;96153.52;107943;1264;37529;-70
2022/05/30 09:54:34;;;;;;;2.50;1.20;;;;;;;15.38;49.71;96154.66;108038;1264;40317;-69
2022/05/30 09:57:12;;;;;;;1.90;1.30;;;;;;;14.83;49.67;96154.52;107980;1266;42748;-70
2022/05/30 09:59:46;;;;;;;1.50;1.30;;;;;;;14.62;50.71;96154.27;107982;1264;46342;-72
2022/05/30 10:02:28;;;;;;;2.00;1.40;;;;;;;14.70;51.32;96158.77;108093;1264;35788;-67
2022/05/30 10:05:02;;;;;;;1.60;1.10;;;;;;;14.58;51.26;96158.55;107948;1264;58529;-68
2022/05/30 10:07:35;;;;;;;1.60;1.50;;;;;;;14.48;52.12;96159.08;108235;1264;31015;-67
2022/05/30 10:10:20;;;;;;;2.30;1.40;;;;;;;14.50;52.96;96169.91;108096;1264;30420;-68
2022/05/30 10:12:59;;;;;;;1.80;1.50;;;;;;;14.66;52.75;96164.70;107948;1264;40422;-71
2022/05/30 10:15:33;;;;;;;2.10;1.70;;;;;;;15.14;52.73;96166.89;108068;1264;36634;-68
2022/05/30 10:18:35;;;;;;;3.20;1.50;;;;;;;15.97;53.62;96165.82;108097;1264;90814;-72
2022/05/30 10:21:20;;;;;;;1.80;1.40;;;;;;;16.57;49.93;96158.98;108002;1264;66665;-72
2022/05/30 10:30:07;;;;;;;2.40;1.30;;;;;;;16.66;49.34;96151.60;107932;1264;49039;-72
2022/05/30 10:32:50;;;;;;;1.00;0.90;;;;;;;16.67;49.53;96149.59;107845;1263;110951;-73
2022/05/30 10:35:28;;;;;;;4.20;1.40;;;;;;;16.57;48.62;96157.02;108264;1264;63369;-72
2022/05/30 10:38:20;;;;;;;2.40;1.70;;;;;;;16.54;49.32;96156.06;108004;1264;66218;-71
2022/05/30 10:41:10;;;;;;;4.20;1.70;;;;;;;16.75;49.79;96155.23;108065;1264;49997;-72
2022/05/30 10:43:53;;;;;;;2.00;1.30;;;;;;;16.87;49.10;96150.36;107928;1264;116575;-72
2022/05/30 10:46:32;;;;;;;2.30;1.20;;;;;;;16.74;49.12;96153.11;107956;1265;36370;-72
2022/05/30 10:49:09;;;;;;;2.80;1.60;;;;;;;16.99;49.04;96156.45;108086;1264;70192;-72
2022/05/30 10:51:50;;;;;;;1.70;1.20;;;;;;;17.43;49.47;96156.62;108157;1264;34241;-72
2022/05/30 10:54:28;;;;;;;2.30;1.50;;;;;;;17.58;48.90;96157.95;108045;1264;84319;-72
2022/05/30 10:57:11;;;;;;;2.50;1.40;;;;;;;17.84;47.58;96154.39;108044;1264;43460;-72
2022/05/30 10:59:46;;;;;;;5.00;1.10;;;;;;;17.66;46.82;96154.34;107956;1264;107714;-71
2022/05/30 11:02:25;;;;;;;1.40;1.20;;;;;;;17.56;46.25;96161.49;108107;1264;35736;-72
2022/05/30 11:05:03;;;;;;;1.90;1.70;;;;;;;17.09;45.56;96164.29;107903;1264;96092;-72
2022/05/30 11:07:47;;;;;;;2.10;1.20;;;;;;;16.84;46.80;96157.84;108052;1264;34086;-72
2022/05/30 11:10:35;;;;;;;2.80;1.40;;;;;;;16.79;46.81;96162.96;108051;1264;32917;-72
2022/05/30 11:13:15;;;;;;;1.40;1.10;;;;;;;16.66;46.88;96172.23;107877;1264;109063;-72
2022/05/30 11:15:52;;;;;;;3.60;1.60;;;;;;;16.90;47.35;96170.81;107997;1264;32462;-72
2022/05/30 11:18:33;;;;;;;2.10;1.50;;;;;;;17.17;46.81;96174.96;107959;1264;40930;-71
2022/05/30 11:21:07;;;;;;;;;;;;;;;17.28;47.42;96179.55;108194;1264;32946;-71
2022/05/30 11:23:39;;;;;;;2.60;1.30;;;;;;;17.25;47.09;96182.97;108017;1264;77651;-72
2022/05/30 11:26:41;;;;;;;2.60;1.40;;;;;;;16.97;46.72;96179.57;107953;1264;38194;-72
2022/05/30 11:29:27;;;;;;;1.90;1.70;;;;;;;16.77;47.26;96185.19;107783;1267;85101;-71
2022/05/30 11:32:02;;;;;;;1.40;1.30;;;;;;;16.78;47.06;96189.00;108115;1264;34513;-72
2022/05/30 11:34:52;;;;;;;1.90;1.30;;;;;;;16.96;47.80;96190.60;108171;1264;71151;-72
2022/05/30 11:37:45;;;;;;;2.00;1.50;;;;;;;17.16;47.14;96187.50;108045;1264;86632;-71
2022/05/30 11:40:25;;;;;;;2.60;1.70;;;;;;;17.17;47.01;96185.83;108136;1264;46682;-71
2022/05/30 11:43:16;;;;;;;2.60;1.60;;;;;;;17.20;47.84;96179.37;107933;1267;46177;-72
2022/05/30 11:45:55;;;;;;;3.00;1.60;;;;;;;17.47;47.30;96174.02;108088;1264;47300;-72
2022/05/30 11:48:36;;;;;;;1.70;1.10;;;;;;;17.49;47.62;96177.20;107930;1264;53668;-72
2022/05/30 11:51:19;;;;;;;1.60;1.40;;;;;;;17.62;46.87;96180.00;108056;1264;32807;-72
2022/05/30 11:54:17;;;;;;;2.90;1.00;;;;;;;17.68;46.04;96170.94;107949;1264;48320;-72
2022/05/30 11:57:02;;;;;;;1.60;1.30;;;;;;;17.59;45.33;96169.40;108171;1264;53874;-72
2022/05/30 11:59:51;;;;;;;1.80;1.30;;;;;;;17.49;45.88;96174.08;108197;1264;53903;-72
2022/05/30 12:02:27;;;;;;;1.70;1.20;;;;;;;17.52;45.67;96171.55;108180;1264;35307;-72
2022/05/30 12:05:32;;;;;;;1.40;1.10;;;;;;;17.54;46.28;96173.99;107964;1264;61808;-72
2022/05/30 12:08:22;;;;;;;1.00;0.80;;;;;;;17.68;45.77;96176.36;108007;1264;63175;-72
2022/05/30 12:11:31;;;;;;;1.90;1.20;;;;;;;17.70;44.55;96167.91;108000;1264;43748;-71
2022/05/30 12:14:20;;;;;;;2.50;1.60;;;;;;;17.66;45.48;96177.08;107943;1264;56754;-71
2022/05/30 12:17:01;;;;;;;3.20;1.80;;;;;;;17.75;45.88;96178.85;107910;1267;45895;-72
2022/05/30 12:25:49;;;;;;;2.60;2.10;;;;;;;17.29;47.03;96192.20;107951;1267;32610;-72
2022/05/30 12:28:50;;;;;;;3.60;1.90;;;;;;;17.21;47.17;96187.19;107949;1264;52587;-71
2022/05/30 12:34:19;;;;;;;6.20;2.30;;;;;;;17.13;47.60;96182.98;104051;1306;545165;-73
2022/05/30 12:36:50;;;;;;;3.90;2.20;;;;;;;17.20;48.47;96179.52;106828;1284;40587;-72
2022/05/30 12:39:41;;;;;;;3.80;2.00;;;;;;;17.34;48.19;96183.05;106990;1283;49652;-72